Аэропорт: Борисполь. Киев

ICAO: UKBB

METAR:
2022-01-28 09:00:00
UKBB 280900Z 23005MPS 9999 OVC020 02/M00 Q1005 NOSIG
METAR:
2022-01-28 05:02:00
TAF UKBB 280502Z 2806/2906 22006G12MPS 6000 OVC007 TX02/2812Z TNM02/2905Z TEMPO 2806/2821 24008G14MPS 1200 SHSNRA BR BKN004 BKN012CB FM282100 29008G14MPS 6000 -SN OVC005 TEMPO 2821/2906 31009G17MPS 0700 +SHSN BKN003 BKN012CB